Hauptseite
METAR-TAF:

METAR-TAF

Flughäfen :

Cambridge, England

Breite: 52-12N, Länge: 000-11E, Höhe: 15 m

Beobachtung

Neuester Wetterbericht von vor 8 Stunden und 7 Minuten, um 16:50 UTC
Wind 6 kt aus Ost/Südost, variierte zwischen Ost/Nordost und Süd/Südost
Temperatur 21°C
Luftfeuchtigkeit 38%
Luftdruck 1003 hPa
Sichtweite 10 km oder mehr
keine Wolken unter 1500 m und keine Kumulonimbus oder Gewitterwolken

METAR: EGSC 221650Z 12006KT 060V150 CAVOK 21/06 Q1003

Zeit: 01:57 (00:57 UTC)

Prognose

Neuester Wetterbericht von vor 10 Stunden und 58 Minuten, um 13:59 UTC
Gültige Prognose vom 22 um 15 UTC bis 22 um 19 UTC
Wind 9 kt aus Ost
Sichtweite 10 km oder mehr
keine Wolken unter 1500 m und keine Kumulonimbus oder Gewitterwolken

TAF: EGSC 221359Z 2215/2219 10009KT CAVOK

Wetterbeobachtungen und Prognosen von mehr als 4000 Flughäfen (METAR und TAF Bericht).

Die verfügbaren Stationen werden durch gelbe und rote Markierungen auf der Karte dargestellt.

Führen Sie die Maus auf sie, um den Namen der Station zu sehen.

Darauf klicken, um die Beobachtung von Wetterbeobachtungen und Prognosen zu sehen.

Um die Karte zu ändern : klicken Sie auf den grünen Tasten mit einem schwarzen Kreuz Zum Vergrößern, auf den grünen Button mit einem Gedankenstrich zu verkleinern, oder auf die grünen Pfeile für benachbarte Karten.


METAR-TAF: